Time;durP1;ratioP1;P1;durP2;ratioP2;P2;SDS_P1;SDS_P2;PMS_P1;PMS_P2;Temp;Humidity;BMP_temperature;BMP_pressure;BME280_temperature;BME280_humidity;BME280_pressure;Samples;Min_cycle;Max_cycle;Signal;HPM_P1;HPM_P2
2024/02/07 00:01:58;;;;;;;8.57;4.33;;;;;;;9.70;100.00;100316.31;5131439;27;20027;-41
2024/02/07 00:04:23;;;;;;;7.13;3.60;;;;;;;9.70;100.00;100319.81;5130564;27;20612;-41
2024/02/07 00:06:48;;;;;;;6.30;3.97;;;;;;;9.70;100.00;100319.00;5122876;27;20015;-41
2024/02/07 00:09:13;;;;;;;7.80;4.50;;;;;;;9.73;100.00;100329.34;5117076;28;20021;-41
2024/02/07 00:11:39;;;;;;;8.00;3.73;;;;;;;9.74;100.00;100337.19;5117568;28;20045;-40
2024/02/07 00:14:05;;;;;;;8.67;3.60;;;;;;;9.77;100.00;100335.91;5116905;28;20046;-40
2024/02/07 00:16:31;;;;;;;6.57;3.72;;;;;;;9.78;100.00;100346.47;5116633;28;20073;-40
2024/02/07 00:18:56;;;;;;;8.82;3.95;;;;;;;9.77;100.00;100320.53;5116353;28;20019;-40
2024/02/07 00:21:22;;;;;;;7.33;3.53;;;;;;;9.83;100.00;100315.22;5116592;28;20020;-40
2024/02/07 00:23:47;;;;;;;8.80;3.93;;;;;;;9.84;100.00;100331.19;5116169;28;20273;-40
2024/02/07 00:26:12;;;;;;;9.13;3.60;;;;;;;9.84;100.00;100344.69;5116226;28;20053;-40
2024/02/07 00:28:38;;;;;;;5.33;3.33;;;;;;;9.84;100.00;100331.19;5116490;28;20072;-41
2024/02/07 00:31:04;;;;;;;8.47;4.23;;;;;;;9.85;100.00;100332.00;5116466;28;20245;-41
2024/02/07 00:33:30;;;;;;;6.40;3.95;;;;;;;9.81;100.00;100326.28;5116857;28;20072;-40
2024/02/07 00:35:55;;;;;;;5.28;3.92;;;;;;;9.83;100.00;100340.34;5116127;28;20440;-41
2024/02/07 00:38:20;;;;;;;7.88;4.00;;;;;;;9.80;100.00;100338.94;5116450;28;20031;-41
2024/02/07 00:40:46;;;;;;;10.53;4.17;;;;;;;9.81;100.00;100328.97;5116165;28;20020;-41
2024/02/07 00:43:14;;;;;;;8.70;4.63;;;;;;;9.81;100.00;100337.09;5116677;28;20020;-40
2024/02/07 00:45:40;;;;;;;9.32;3.95;;;;;;;9.83;100.00;100350.34;5116282;28;20258;-41
2024/02/07 00:48:05;;;;;;;6.13;3.53;;;;;;;9.85;100.00;100349.03;5116880;28;20036;-41
2024/02/07 00:50:31;;;;;;;5.15;3.20;;;;;;;9.87;100.00;100352.31;5116235;28;20765;-41
2024/02/07 00:52:56;;;;;;;6.03;3.53;;;;;;;9.87;100.00;100341.53;5116203;28;20113;-40
2024/02/07 00:55:21;;;;;;;5.83;3.47;;;;;;;9.89;100.00;100343.97;5116203;27;20075;-40
2024/02/07 00:57:48;;;;;;;8.27;5.30;;;;;;;9.90;100.00;100337.50;5115731;28;20482;-41
2024/02/07 01:00:14;;;;;;;7.72;3.90;;;;;;;9.89;100.00;100325.91;5115986;28;20035;-41
2024/02/07 01:02:41;;;;;;;8.82;3.83;;;;;;;9.87;100.00;100346.94;5115504;28;20027;-41
2024/02/07 01:05:08;;;;;;;4.38;3.40;;;;;;;9.89;100.00;100334.00;5115908;28;20095;-40
2024/02/07 01:07:33;;;;;;;6.28;3.50;;;;;;;9.87;100.00;100333.44;5115960;28;20031;-41
2024/02/07 01:09:59;;;;;;;10.83;4.50;;;;;;;9.84;100.00;100315.00;5115677;28;20368;-40
2024/02/07 01:12:24;;;;;;;5.10;3.30;;;;;;;9.91;100.00;100331.06;5115853;28;20042;-40
2024/02/07 01:14:49;;;;;;;5.07;3.37;;;;;;;9.94;100.00;100330.56;5115409;28;20034;-40
2024/02/07 01:17:15;;;;;;;6.57;3.77;;;;;;;9.93;100.00;100340.56;5114996;28;20261;-40
2024/02/07 01:19:40;;;;;;;6.07;2.80;;;;;;;9.77;100.00;100354.81;5114637;28;20056;-40
2024/02/07 01:22:05;;;;;;;1.20;1.10;;;;;;;9.38;100.00;100311.31;5115477;28;20337;-40
2024/02/07 01:24:31;;;;;;;1.00;0.77;;;;;;;9.14;100.00;100358.25;5115107;27;20386;-40
2024/02/07 01:26:56;;;;;;;3.10;0.90;;;;;;;8.94;100.00;100324.34;5115558;28;20432;-40
2024/02/07 01:29:21;;;;;;;1.15;0.90;;;;;;;8.72;100.00;100324.03;5115225;28;20355;-41
2024/02/07 01:31:47;;;;;;;1.90;1.00;;;;;;;8.66;100.00;100334.94;5115266;28;20368;-40
2024/02/07 01:34:12;;;;;;;2.72;1.27;;;;;;;8.38;100.00;100371.41;5114980;27;20315;-40
2024/02/07 01:36:47;;;;;;;1.50;0.80;;;;;;;8.16;100.00;100308.28;5115367;28;20023;-40
2024/02/07 01:39:15;;;;;;;1.48;0.80;;;;;;;7.76;100.00;100349.16;5115212;28;20398;-41
2024/02/07 01:41:59;;;;;;;1.65;0.93;;;;;;;7.47;100.00;100319.25;5115223;28;20092;-40
2024/02/07 01:44:29;;;;;;;1.90;0.77;;;;;;;7.32;100.00;100386.03;5114969;28;20038;-40
2024/02/07 01:47:13;;;;;;;2.45;0.95;;;;;;;7.19;100.00;100351.19;5115177;28;20364;-40
2024/02/07 01:49:42;;;;;;;1.98;1.00;;;;;;;7.21;100.00;100374.09;5115083;28;20102;-40
2024/02/07 01:52:10;;;;;;;3.35;1.10;;;;;;;6.91;100.00;100382.00;5115033;28;20102;-40
2024/02/07 01:54:36;;;;;;;3.63;0.98;;;;;;;6.76;100.00;100368.06;5114486;28;20051;-40
2024/02/07 01:57:03;;;;;;;5.47;2.03;;;;;;;6.70;100.00;100364.38;5115183;28;20024;-40
2024/02/07 01:59:29;;;;;;;5.57;1.48;;;;;;;6.45;100.00;100377.75;5114587;28;20044;-40
2024/02/07 02:01:54;;;;;;;;;;;;;;;6.63;100.00;100377.03;5115374;28;20016;-40
2024/02/07 02:04:19;;;;;;;1.88;0.90;;;;;;;6.53;100.00;100367.78;5114246;28;19914;-40
2024/02/07 02:06:46;;;;;;;2.70;1.30;;;;;;;6.50;100.00;100387.03;5115338;28;20034;-40
2024/02/07 02:09:11;;;;;;;;;;;;;;;6.55;100.00;100388.03;5114887;28;20023;-40
2024/02/07 02:11:41;;;;;;;4.78;1.13;;;;;;;6.32;100.00;100393.94;5114446;28;19908;-40
2024/02/07 02:14:07;;;;;;;4.03;1.10;;;;;;;6.25;100.00;100387.78;5114341;28;20448;-40
2024/02/07 02:16:33;;;;;;;2.55;1.23;;;;;;;6.17;100.00;100383.47;5114319;28;20555;-40
2024/02/07 02:18:58;;;;;;;3.40;1.13;;;;;;;6.08;100.00;100387.44;5114535;28;20051;-40
2024/02/07 02:21:30;;;;;;;4.28;1.27;;;;;;;6.08;100.00;100395.47;5114515;28;20024;-40
2024/02/07 02:24:41;;;;;;;4.55;1.55;;;;;;;6.03;100.00;100387.25;5114467;28;20418;-40
2024/02/07 02:27:33;;;;;;;5.03;1.38;;;;;;;5.92;100.00;100378.00;5115022;28;20355;-40
2024/02/07 02:30:09;;;;;;;3.47;1.58;;;;;;;6.03;100.00;100379.19;5114227;28;20027;-40
2024/02/07 02:32:38;;;;;;;3.08;1.05;;;;;;;5.96;100.00;100377.59;5114050;28;20463;-40
2024/02/07 02:35:06;;;;;;;2.92;1.13;;;;;;;6.00;100.00;100402.94;5114191;28;20020;-40
2024/02/07 02:37:32;;;;;;;4.25;1.42;;;;;;;6.08;100.00;100410.78;5114291;28;20015;-40
2024/02/07 02:39:57;;;;;;;4.60;1.50;;;;;;;6.08;100.00;100413.44;5114249;28;20024;-40
2024/02/07 02:42:22;;;;;;;4.43;1.87;;;;;;;5.81;100.00;100405.47;5114095;28;20023;-40
2024/02/07 02:44:48;;;;;;;6.17;1.87;;;;;;;5.89;100.00;100415.94;5113994;28;20024;-40
2024/02/07 02:47:14;;;;;;;7.23;2.20;;;;;;;5.98;100.00;100421.13;5113970;28;20024;-40
2024/02/07 02:49:39;;;;;;;5.97;1.80;;;;;;;5.91;100.00;100413.06;5114653;28;20358;-40
2024/02/07 02:52:06;;;;;;;4.70;1.27;;;;;;;5.95;100.00;100422.34;5114418;28;20023;-40
2024/02/07 02:54:34;;;;;;;4.38;1.48;;;;;;;5.86;100.00;100437.03;5113744;28;20422;-40
2024/02/07 02:57:01;;;;;;;6.47;1.73;;;;;;;5.80;100.00;100416.38;5114077;28;20036;-40
2024/02/07 02:59:27;;;;;;;3.97;1.33;;;;;;;5.82;100.00;100436.63;5113777;28;20024;-40
2024/02/07 03:01:53;;;;;;;6.20;1.80;;;;;;;5.74;100.00;100426.09;5114585;28;20349;-40
2024/02/07 03:04:18;;;;;;;4.53;1.27;;;;;;;5.76;100.00;100432.09;5113805;28;20023;-40
2024/02/07 03:06:59;;;;;;;4.07;1.45;;;;;;;5.80;100.00;100433.31;5114558;28;20073;-40
2024/02/07 03:09:27;;;;;;;4.05;1.50;;;;;;;5.77;100.00;100443.66;5114461;28;20095;-40
2024/02/07 03:11:53;;;;;;;3.42;1.42;;;;;;;5.77;100.00;100439.09;5113657;28;20020;-40
2024/02/07 03:14:19;;;;;;;5.78;1.40;;;;;;;5.76;100.00;100431.25;5113572;28;20051;-40
2024/02/07 03:16:45;;;;;;;6.13;1.50;;;;;;;5.72;100.00;100436.22;5113880;28;20383;-41
2024/02/07 03:19:12;;;;;;;3.50;1.23;;;;;;;5.82;100.00;100442.00;5113544;28;20115;-40
2024/02/07 03:21:38;;;;;;;3.28;1.42;;;;;;;5.72;100.00;100441.59;5114413;28;20031;-40
2024/02/07 03:24:04;;;;;;;;;;;;;;;5.81;100.00;100436.84;5113951;28;20032;-40
2024/02/07 03:26:29;;;;;;;4.80;1.50;;;;;;;5.52;100.00;100433.56;5113335;28;19907;-40
2024/02/07 03:28:54;;;;;;;3.03;1.10;;;;;;;5.63;100.00;100432.94;5113570;28;20015;-40
2024/02/07 03:31:20;;;;;;;3.60;1.57;;;;;;;5.61;100.00;100444.88;5113585;28;20119;-40
2024/02/07 03:33:47;;;;;;;4.45;1.30;;;;;;;5.45;100.00;100434.59;5113453;28;20040;-40
2024/02/07 03:36:12;;;;;;;5.35;1.75;;;;;;;5.51;100.00;100465.94;5113919;28;20051;-40
2024/02/07 03:38:38;;;;;;;4.88;1.60;;;;;;;5.32;100.00;100435.41;5114229;28;20016;-40
2024/02/07 03:41:05;;;;;;;5.63;1.67;;;;;;;5.48;100.00;100459.16;5113655;28;20084;-40
2024/02/07 03:43:33;;;;;;;4.68;1.60;;;;;;;5.28;100.00;100456.47;5117002;28;20034;-40
2024/02/07 03:45:59;;;;;;;6.30;1.45;;;;;;;5.30;100.00;100446.34;5117493;28;20046;-40
2024/02/07 03:48:25;;;;;;;4.75;1.10;;;;;;;5.01;100.00;100444.88;5116928;28;20027;-40
2024/02/07 03:50:51;;;;;;;4.18;1.42;;;;;;;5.05;100.00;100466.75;5117147;28;20024;-40
2024/02/07 03:53:16;;;;;;;3.10;1.17;;;;;;;5.02;100.00;100472.50;5117442;28;20050;-40
2024/02/07 03:55:41;;;;;;;3.93;1.27;;;;;;;4.87;100.00;100465.47;5117213;28;20104;-40
2024/02/07 03:58:08;;;;;;;5.37;1.00;;;;;;;4.86;100.00;100457.66;5117068;28;20139;-40
2024/02/07 04:00:34;;;;;;;3.65;0.85;;;;;;;4.76;100.00;100467.94;5116980;28;20027;-40
2024/02/07 04:03:00;;;;;;;4.25;1.05;;;;;;;4.74;100.00;100480.72;5116942;28;20092;-40
2024/02/07 04:05:26;;;;;;;4.07;0.90;;;;;;;4.72;100.00;100454.09;5117346;28;20035;-40
2024/02/07 04:07:52;;;;;;;6.45;1.58;;;;;;;4.52;100.00;100456.72;5116849;28;20569;-40
2024/02/07 04:10:18;;;;;;;3.47;0.90;;;;;;;4.63;100.00;100480.25;5116512;28;20092;-40
2024/02/07 05:15:35;;;;;;;4.80;1.92;;;;;;;4.72;100.00;100490.78;5115371;28;20042;-40
2024/02/07 05:18:01;;;;;;;5.95;1.77;;;;;;;4.77;100.00;100505.22;5115737;28;20023;-40
2024/02/07 05:20:26;;;;;;;4.70;1.55;;;;;;;4.72;100.00;100506.84;5115367;27;20084;-40
2024/02/07 05:22:52;;;;;;;4.60;1.23;;;;;;;4.67;100.00;100493.25;5115457;28;20015;-40
2024/02/07 05:25:18;;;;;;;6.90;1.63;;;;;;;4.75;100.00;100501.09;5115787;28;20053;-40
2024/02/07 05:27:43;;;;;;;3.67;1.00;;;;;;;4.76;100.00;100516.97;5115580;28;20019;-40
2024/02/07 05:30:09;;;;;;;4.43;1.20;;;;;;;4.76;100.00;100505.44;5115204;28;20024;-40
2024/02/07 05:32:34;;;;;;;5.13;1.15;;;;;;;4.73;100.00;100517.34;5115782;28;20019;-40
2024/02/07 05:35:00;;;;;;;5.47;1.47;;;;;;;4.70;100.00;100512.41;5115093;28;20455;-40
2024/02/07 05:37:25;;;;;;;4.60;1.17;;;;;;;4.65;100.00;100515.69;5115166;28;20020;-40
2024/02/07 05:39:51;;;;;;;3.95;1.25;;;;;;;4.65;100.00;100520.22;5114724;28;20051;-40
2024/02/07 05:42:16;;;;;;;4.60;1.20;;;;;;;4.60;100.00;100514.66;5114650;28;20024;-40
2024/02/07 05:44:42;;;;;;;6.77;1.23;;;;;;;4.58;100.00;100509.47;5114250;28;20559;-40
2024/02/07 05:47:07;;;;;;;3.57;1.13;;;;;;;4.59;100.00;100510.31;5115236;28;20028;-40
2024/02/07 05:49:32;;;;;;;5.17;1.40;;;;;;;4.62;100.00;100523.31;5114216;28;20096;-40
2024/02/07 05:51:58;;;;;;;3.75;1.00;;;;;;;4.57;100.00;100518.53;5114572;28;20472;-40
2024/02/07 05:54:27;;;;;;;4.27;1.03;;;;;;;4.63;100.00;100527.63;5114078;28;20035;-40
2024/02/07 05:56:53;;;;;;;4.45;1.70;;;;;;;4.62;100.00;100528.66;5115576;28;20043;-40
2024/02/07 05:59:19;;;;;;;5.50;1.10;;;;;;;4.61;100.00;100525.16;5114005;28;20020;-40
2024/02/07 06:01:44;;;;;;;;;;;;;;;4.74;100.00;100536.97;5114636;28;20024;-40
2024/02/07 06:04:10;;;;;;;4.03;1.00;;;;;;;4.63;100.00;100541.84;5114139;28;19959;-40
2024/02/07 06:06:36;;;;;;;3.13;1.20;;;;;;;4.54;100.00;100540.38;5114643;28;20024;-40
2024/02/07 06:09:04;;;;;;;2.63;0.85;;;;;;;4.61;100.00;100545.75;5114395;28;20023;-40
2024/02/07 06:11:32;;;;;;;4.00;1.10;;;;;;;4.58;100.00;100544.28;5114371;28;20035;-40
2024/02/07 06:13:59;;;;;;;2.63;1.10;;;;;;;4.65;100.00;100563.09;5114020;28;20042;-40
2024/02/07 06:16:24;;;;;;;5.18;1.98;;;;;;;4.62;100.00;100558.13;5113897;28;20050;-40
2024/02/07 06:18:50;;;;;;;4.82;1.40;;;;;;;4.63;100.00;100573.16;5113636;28;20015;-40
2024/02/07 06:21:15;;;;;;;4.17;1.20;;;;;;;4.68;100.00;100570.69;5114259;28;20102;-40
2024/02/07 06:23:41;;;;;;;4.65;1.85;;;;;;;4.61;100.00;100561.81;5114069;28;20049;-40
2024/02/07 06:26:06;;;;;;;6.80;1.50;;;;;;;4.60;100.00;100560.19;5114095;28;20430;-40
2024/02/07 06:28:32;;;;;;;5.90;1.60;;;;;;;4.67;100.00;100569.06;5113558;28;20633;-40
2024/02/07 06:30:57;;;;;;;5.33;2.23;;;;;;;4.68;100.00;100561.84;5114336;28;20024;-40
2024/02/07 06:33:22;;;;;;;4.60;1.37;;;;;;;4.72;100.00;100555.91;5114242;28;20019;-40
2024/02/07 06:35:48;;;;;;;4.17;1.10;;;;;;;4.64;100.00;100564.94;5114516;28;20111;-40
2024/02/07 06:38:13;;;;;;;6.43;1.40;;;;;;;4.59;100.00;100555.84;5113996;28;20478;-40
2024/02/07 06:40:39;;;;;;;3.97;1.63;;;;;;;4.68;100.00;100572.56;5114015;28;20139;-40
2024/02/07 06:43:04;;;;;;;5.40;1.38;;;;;;;4.67;100.00;100569.06;5114036;28;20073;-40
2024/02/07 06:45:30;;;;;;;3.63;1.00;;;;;;;4.68;100.00;100557.31;5113711;28;20038;-40
2024/02/07 06:47:56;;;;;;;4.60;1.30;;;;;;;4.57;100.00;100552.53;5114567;28;20020;-40
2024/02/07 06:50:23;;;;;;;4.68;1.30;;;;;;;4.56;100.00;100556.25;5113564;28;20023;-40
2024/02/07 06:52:49;;;;;;;3.78;1.27;;;;;;;4.50;100.00;100565.91;5114449;28;20027;-40
2024/02/07 06:55:15;;;;;;;6.03;1.40;;;;;;;4.54;100.00;100568.97;5113625;28;20043;-40
2024/02/07 06:57:40;;;;;;;;;;;;;;;4.62;100.00;100563.47;5114259;28;20092;-40
2024/02/07 07:00:07;;;;;;;5.30;1.20;;;;;;;4.46;100.00;100572.66;5114279;28;19908;-40
2024/02/07 07:02:32;;;;;;;5.10;1.40;;;;;;;4.43;100.00;100574.91;5113852;28;20266;-40
2024/02/07 07:04:57;;;;;;;4.37;1.40;;;;;;;4.44;100.00;100569.38;5113744;28;20035;-40
2024/02/07 07:07:23;;;;;;;4.57;1.30;;;;;;;4.43;100.00;100575.72;5113841;28;20088;-40
2024/02/07 07:09:48;;;;;;;3.10;1.03;;;;;;;4.51;100.00;100580.09;5113761;28;20028;-40
2024/02/07 07:12:13;;;;;;;3.73;1.17;;;;;;;4.46;100.00;100593.25;5113824;28;20047;-40
2024/02/07 07:14:43;;;;;;;4.77;1.30;;;;;;;4.42;100.00;100594.69;5114162;28;20023;-40
2024/02/07 07:17:08;;;;;;;4.43;1.30;;;;;;;4.35;100.00;100570.56;5115739;28;20024;-39
2024/02/07 07:19:34;;;;;;;5.43;1.48;;;;;;;4.45;100.00;100581.72;5118083;28;20023;-39
2024/02/07 07:21:59;;;;;;;6.87;1.57;;;;;;;4.39;100.00;100578.00;5118220;28;20028;-40
2024/02/07 07:24:24;;;;;;;3.67;1.10;;;;;;;4.41;100.00;100601.06;5117665;28;20024;-39
2024/02/07 07:26:50;;;;;;;5.20;1.47;;;;;;;4.41;100.00;100603.75;5117633;28;20110;-39
2024/02/07 07:29:17;;;;;;;4.83;1.40;;;;;;;4.41;100.00;100582.31;5118160;28;20114;-40
2024/02/07 07:31:42;;;;;;;4.05;1.30;;;;;;;4.48;100.00;100609.94;5117556;28;20032;-39
2024/02/07 07:34:07;;;;;;;3.67;1.40;;;;;;;4.46;100.00;100614.69;5117268;28;20081;-39
2024/02/07 07:36:33;;;;;;;4.70;1.80;;;;;;;4.49;100.00;100623.16;5117713;28;20019;-39
2024/02/07 07:38:58;;;;;;;5.33;1.90;;;;;;;4.52;100.00;100628.09;5117370;28;20035;-39
2024/02/07 07:41:23;;;;;;;4.53;1.40;;;;;;;4.52;100.00;100630.78;5117232;28;20528;-40
2024/02/07 07:43:50;;;;;;;3.83;1.80;;;;;;;4.53;100.00;100629.75;5117409;28;20020;-39
2024/02/07 07:46:15;;;;;;;5.40;1.67;;;;;;;4.48;100.00;100618.81;5117770;28;20410;-39
2024/02/07 07:48:40;;;;;;;6.47;1.60;;;;;;;4.51;100.00;100622.94;5117300;28;20051;-39
2024/02/07 07:51:06;;;;;;;5.80;2.00;;;;;;;4.49;100.00;100617.81;5116893;28;20080;-39
2024/02/07 07:53:32;;;;;;;3.60;1.45;;;;;;;4.47;100.00;100635.91;5117611;28;20055;-39
2024/02/07 07:55:57;;;;;;;5.13;1.50;;;;;;;4.51;100.00;100642.53;5117694;28;20405;-39
2024/02/07 07:58:23;;;;;;;3.37;1.50;;;;;;;4.54;100.00;100641.28;5116663;28;20019;-39
2024/02/07 08:00:48;;;;;;;4.53;1.87;;;;;;;4.52;100.00;100633.47;5116765;28;20028;-39
2024/02/07 08:03:13;;;;;;;6.03;1.80;;;;;;;4.50;100.00;100645.41;5117477;27;20023;-39
2024/02/07 08:05:40;;;;;;;5.00;1.60;;;;;;;4.52;100.00;100644.16;5116903;28;20270;-39
2024/02/07 08:08:07;;;;;;;5.20;1.85;;;;;;;4.54;100.00;100641.28;5116803;28;20012;-39
2024/02/07 08:10:33;;;;;;;6.35;1.85;;;;;;;4.43;100.00;100626.59;5117541;28;20015;-40
2024/02/07 08:12:59;;;;;;;5.13;2.03;;;;;;;4.52;100.00;100633.47;5116857;28;20053;-39
2024/02/07 08:15:24;;;;;;;5.97;1.80;;;;;;;4.57;100.00;100652.44;5116642;28;20024;-39
2024/02/07 08:17:49;;;;;;;4.37;2.77;;;;;;;4.54;100.00;100643.97;5117469;28;20264;-39
2024/02/07 08:20:15;;;;;;;3.80;2.00;;;;;;;4.59;100.00;100638.88;5116536;28;20051;-39
2024/02/07 08:22:40;;;;;;;5.40;2.40;;;;;;;4.54;100.00;100652.84;5116539;28;20011;-39
2024/02/07 08:25:06;;;;;;;7.40;2.97;;;;;;;4.56;100.00;100650.78;5116614;28;20027;-39
2024/02/07 08:27:31;;;;;;;6.40;2.30;;;;;;;4.54;100.00;100610.00;5116522;28;20027;-39
2024/02/07 08:29:57;;;;;;;5.07;2.30;;;;;;;4.67;100.00;100637.88;5116471;28;20019;-39
2024/02/07 08:32:22;;;;;;;6.20;2.63;;;;;;;4.65;100.00;100643.44;5116584;28;20026;-39
2024/02/07 08:34:48;;;;;;;5.97;2.50;;;;;;;4.65;100.00;100643.44;5116823;28;20040;-39
2024/02/07 08:37:13;;;;;;;6.20;2.47;;;;;;;4.68;100.00;100631.50;5117090;28;20027;-39
2024/02/07 08:39:38;;;;;;;4.57;2.27;;;;;;;4.67;100.00;100629.84;5116048;28;20035;-39
2024/02/07 08:42:05;;;;;;;7.40;2.83;;;;;;;4.69;100.00;100627.81;5116510;28;20055;-39
2024/02/07 08:44:37;;;;;;;4.53;2.17;;;;;;;4.66;100.00;100639.72;5116098;28;20076;-40
2024/02/07 08:47:02;;;;;;;5.97;2.75;;;;;;;4.65;100.00;100628.19;5116084;28;20048;-40
2024/02/07 08:49:28;;;;;;;6.40;2.10;;;;;;;4.61;100.00;100636.81;5116082;28;20114;-40
2024/02/07 08:51:53;;;;;;;7.10;2.77;;;;;;;4.62;100.00;100641.16;5116291;28;20431;-39
2024/02/07 08:54:18;;;;;;;4.97;2.00;;;;;;;4.77;100.00;100651.72;5115926;28;20305;-39
2024/02/07 08:56:44;;;;;;;6.07;2.17;;;;;;;4.80;100.00;100667.44;5116354;28;20043;-39
2024/02/07 08:59:09;;;;;;;6.83;2.00;;;;;;;4.80;100.00;100659.38;5116152;28;20452;-39
2024/02/07 09:01:34;;;;;;;5.80;2.10;;;;;;;4.84;100.00;100660.66;5116414;28;20023;-39
2024/02/07 09:04:00;;;;;;;4.33;1.70;;;;;;;4.86;100.00;100670.13;5115710;28;20106;-39
2024/02/07 09:06:25;;;;;;;5.17;1.60;;;;;;;4.92;100.00;100684.59;5115977;28;20076;-39
2024/02/07 09:08:50;;;;;;;6.67;1.87;;;;;;;4.85;100.00;100665.81;5115881;28;20348;-39
2024/02/07 09:11:16;;;;;;;5.63;1.63;;;;;;;4.90;100.00;100668.72;5115887;28;20455;-39
2024/02/07 09:13:41;;;;;;;5.73;1.60;;;;;;;4.96;100.00;100674.31;5115481;28;20089;-39
2024/02/07 09:16:06;;;;;;;3.80;1.53;;;;;;;4.90;100.00;100666.03;5116205;28;20024;-39
2024/02/07 09:18:35;;;;;;;7.03;2.30;;;;;;;4.93;100.00;100670.19;5115692;28;20026;-39
2024/02/07 09:21:00;;;;;;;6.30;1.60;;;;;;;4.85;100.00;100665.81;5115666;28;20020;-39
2024/02/07 09:23:25;;;;;;;5.87;1.80;;;;;;;4.82;100.00;100650.13;5115110;28;20027;-39
2024/02/07 09:25:51;;;;;;;4.50;1.50;;;;;;;4.85;100.00;100657.75;5115291;27;20304;-39
2024/02/07 09:28:16;;;;;;;5.87;2.13;;;;;;;4.93;100.00;100677.38;5115074;28;20019;-39
2024/02/07 09:30:41;;;;;;;5.43;1.50;;;;;;;4.85;100.00;100675.69;5115116;28;20073;-39
2024/02/07 09:33:07;;;;;;;4.80;1.67;;;;;;;4.92;100.00;100695.31;5115284;28;20019;-39
2024/02/07 09:35:32;;;;;;;5.50;1.30;;;;;;;4.89;100.00;100701.09;5115057;28;20111;-39
2024/02/07 09:37:57;;;;;;;4.37;1.20;;;;;;;4.89;100.00;100719.84;5115105;27;20061;-39
2024/02/07 09:40:23;;;;;;;5.70;1.60;;;;;;;4.86;100.00;100720.22;5114228;28;20102;-39
2024/02/07 09:42:50;;;;;;;4.47;1.38;;;;;;;4.95;100.00;100713.69;5115526;28;20031;-39
2024/02/07 09:45:18;;;;;;;5.07;1.55;;;;;;;4.80;100.00;100716.47;5115386;28;20443;-39
2024/02/07 09:47:57;;;;;;;7.80;1.85;;;;;;;4.80;100.00;100705.75;5115422;27;20023;-39
2024/02/07 09:50:22;;;;;;;4.30;1.20;;;;;;;4.89;100.00;100706.44;5115630;28;20024;-39
2024/02/07 09:52:48;;;;;;;7.90;1.90;;;;;;;4.87;100.00;100711.97;5115082;28;20026;-39
2024/02/07 09:55:14;;;;;;;5.88;1.50;;;;;;;4.86;100.00;100710.31;5114491;28;20153;-39
2024/02/07 09:57:39;;;;;;;5.72;1.67;;;;;;;4.95;100.00;100707.50;5115000;28;20027;-39
2024/02/07 10:00:06;;;;;;;8.93;1.80;;;;;;;4.88;100.00;100683.31;5114651;28;20416;-39
2024/02/07 10:02:36;;;;;;;4.68;1.63;;;;;;;5.00;100.00;100679.06;5114534;28;20055;-39
2024/02/07 10:05:05;;;;;;;5.93;1.30;;;;;;;5.00;100.00;100679.06;5114555;28;20030;-39
2024/02/07 10:07:33;;;;;;;11.07;1.80;;;;;;;5.00;100.00;100688.97;5114299;28;20023;-39
2024/02/07 10:09:59;;;;;;;6.80;1.73;;;;;;;4.98;100.00;100664.19;5114503;28;20024;-40
2024/02/07 10:12:25;;;;;;;5.47;1.27;;;;;;;5.20;100.00;100652.34;5115032;28;20333;-40
2024/02/07 10:14:51;;;;;;;6.57;1.48;;;;;;;5.15;100.00;100658.31;5114079;28;20015;-40
2024/02/07 10:17:16;;;;;;;3.67;1.73;;;;;;;5.14;100.00;100666.56;5114748;28;20030;-39
2024/02/07 10:19:41;;;;;;;7.20;1.80;;;;;;;5.14;100.00;100675.44;5114449;28;20023;-40
2024/02/07 10:22:15;;;;;;;5.00;1.77;;;;;;;5.22;100.00;100655.69;5114295;28;20055;-40
2024/02/07 10:24:40;;;;;;;5.65;1.70;;;;;;;5.28;100.00;100668.28;5113959;28;20613;-40
2024/02/07 10:27:06;;;;;;;6.77;1.83;;;;;;;5.36;100.00;100681.50;5113939;28;20035;-39
2024/02/07 10:29:31;;;;;;;2.93;1.50;;;;;;;5.29;100.00;100667.25;5114116;28;20268;-39
2024/02/07 10:31:56;;;;;;;6.20;1.90;;;;;;;5.35;100.00;100674.47;5114537;28;20023;-39
2024/02/07 10:34:23;;;;;;;6.50;1.70;;;;;;;5.42;100.00;100661.13;5114238;28;20027;-39
2024/02/07 10:37:00;;;;;;;8.45;2.42;;;;;;;5.43;100.00;100658.22;5114407;28;20118;-39
2024/02/07 10:39:26;;;;;;;6.40;1.73;;;;;;;5.46;100.00;100658.84;5114496;28;20026;-39
2024/02/07 10:41:51;;;;;;;4.20;1.90;;;;;;;5.58;100.00;100665.28;5114480;28;20451;-39
2024/02/07 10:44:17;;;;;;;6.10;2.27;;;;;;;5.56;100.00;100659.28;5113767;28;20346;-39
2024/02/07 10:46:42;;;;;;;7.13;2.78;;;;;;;5.67;100.00;100682.84;5114407;28;20019;-39
2024/02/07 10:49:09;;;;;;;8.25;1.98;;;;;;;5.65;100.00;100676.84;5114056;28;20091;-40
2024/02/07 10:51:35;;;;;;;8.45;2.13;;;;;;;5.65;100.00;100679.53;5114474;28;20023;-39
2024/02/07 10:54:06;;;;;;;6.00;1.95;;;;;;;5.52;100.00;100671.47;5113928;28;20016;-39
2024/02/07 10:56:37;;;;;;;7.50;2.20;;;;;;;5.59;100.00;100673.13;5114227;28;20043;-39
2024/02/07 10:59:03;;;;;;;6.60;1.95;;;;;;;5.58;100.00;100670.63;5113906;28;20026;-39
2024/02/07 11:01:30;;;;;;;6.15;2.20;;;;;;;5.68;100.00;100666.53;5114765;28;20020;-39
2024/02/07 11:03:56;;;;;;;;;;;;;;;5.82;100.00;100661.19;5114082;28;20047;-39
2024/02/07 11:06:22;;;;;;;7.70;2.22;;;;;;;5.77;100.00;100658.31;5113906;28;19908;-39
2024/02/07 11:08:48;;;;;;;7.13;2.03;;;;;;;5.76;100.00;100670.91;5113901;28;20041;-39
2024/02/07 11:11:14;;;;;;;7.07;2.05;;;;;;;5.85;100.00;100666.97;5114226;28;20401;-39
2024/02/07 11:13:40;;;;;;;6.30;2.05;;;;;;;5.88;100.00;100671.94;5113795;28;20027;-39
2024/02/07 11:16:07;;;;;;;8.63;2.27;;;;;;;5.90;100.00;100669.91;5114101;28;20024;-39
2024/02/07 11:18:33;;;;;;;8.10;1.92;;;;;;;5.79;100.00;100649.00;5114036;28;20262;-39
2024/02/07 11:20:59;;;;;;;6.37;2.20;;;;;;;5.87;100.00;100667.59;5114033;28;20482;-39
2024/02/07 11:23:31;;;;;;;11.00;2.83;;;;;;;5.79;100.00;100673.16;5114001;28;20091;-39
2024/02/07 11:25:58;;;;;;;7.15;2.10;;;;;;;5.78;100.00;100666.16;5114477;28;20024;-39
2024/02/07 11:28:23;;;;;;;10.30;2.28;;;;;;;5.81;100.00;100655.00;5114170;28;20102;-40
2024/02/07 11:30:55;;;;;;;11.48;2.42;;;;;;;5.83;100.00;100663.66;5113594;28;20050;-40
2024/02/07 11:33:20;;;;;;;9.10;2.20;;;;;;;5.90;100.00;100669.91;5114154;28;20359;-40
2024/02/07 11:35:46;;;;;;;5.77;2.03;;;;;;;5.99;100.00;100665.16;5113752;28;20030;-39
2024/02/07 11:38:11;;;;;;;10.10;1.85;;;;;;;6.04;100.00;100651.13;5113889;28;20100;-39
2024/02/07 11:40:41;;;;;;;6.38;2.05;;;;;;;6.04;100.00;100648.44;5113550;28;20022;-39
2024/02/07 11:43:10;;;;;;;4.22;1.70;;;;;;;6.03;100.00;100646.78;5113146;28;20409;-40
2024/02/07 11:45:39;;;;;;;7.68;2.22;;;;;;;5.95;100.00;100655.84;5113193;28;20051;-39
2024/02/07 11:48:28;;;;;;;14.02;2.90;;;;;;;5.96;100.00;100652.16;5113541;28;20019;-39
2024/02/07 11:50:55;;;;;;;8.20;2.28;;;;;;;5.74;100.00;100654.16;5102938;28;20038;-39
2024/02/07 11:53:21;;;;;;;7.32;2.10;;;;;;;5.75;100.00;100663.03;5114259;28;20389;-39
2024/02/07 11:55:47;;;;;;;8.90;2.30;;;;;;;5.76;100.00;100657.47;5114047;28;20386;-39
2024/02/07 11:58:20;;;;;;;11.63;2.95;;;;;;;5.84;100.00;100659.94;5114001;28;20100;-40
2024/02/07 12:00:46;;;;;;;7.63;2.22;;;;;;;5.85;100.00;100656.22;5113927;28;20363;-39
2024/02/07 12:03:14;;;;;;;7.13;2.05;;;;;;;5.82;100.00;100662.03;5116206;28;20050;-39
2024/02/07 12:05:39;;;;;;;9.65;2.45;;;;;;;5.85;100.00;100640.13;5117838;28;20023;-39
2024/02/07 12:08:07;;;;;;;7.32;2.08;;;;;;;5.93;100.00;100664.13;5117316;28;20443;-39
2024/02/07 12:10:32;;;;;;;8.85;2.38;;;;;;;5.99;100.00;100658.97;5116678;28;20076;-39
2024/02/07 12:12:58;;;;;;;7.63;2.13;;;;;;;6.11;100.00;100652.78;5116989;28;20035;-39
2024/02/07 12:15:27;;;;;;;5.87;2.03;;;;;;;6.09;100.00;100649.47;5117078;28;20058;-39
2024/02/07 12:17:54;;;;;;;7.72;2.03;;;;;;;6.02;100.00;100643.28;5116895;28;20068;-39
2024/02/07 12:20:19;;;;;;;9.25;2.50;;;;;;;6.10;100.00;100652.97;5116732;28;20516;-40
2024/02/07 12:22:46;;;;;;;10.98;2.70;;;;;;;6.21;100.00;100652.38;5116823;28;20096;-40
2024/02/07 12:25:15;;;;;;;12.60;2.58;;;;;;;6.03;100.00;100646.78;5116627;28;20028;-40
2024/02/07 12:27:41;;;;;;;8.70;2.50;;;;;;;6.06;100.00;100638.34;5116681;28;20034;-40